Time;durP1;ratioP1;P1;durP2;ratioP2;P2;SDS_P1;SDS_P2;PMS_P1;PMS_P2;Temp;Humidity;BMP_temperature;BMP_pressure;BME280_temperature;BME280_humidity;BME280_pressure;Samples;Min_cycle;Max_cycle;Signal;HPM_P1;HPM_P2
2022/11/26 00:00:38;;;;;;;140.55;81.80;;;102.90;2227.20;;;;;;4991287;28;20153;-60
2022/11/26 00:03:04;;;;;;;42.30;28.52;;;102.90;2227.20;;;;;;4991133;28;20513;-62
2022/11/26 00:05:31;;;;;;;42.95;29.38;;;102.90;2227.20;;;;;;4991198;28;20025;-59
2022/11/26 00:07:59;;;;;;;53.05;28.67;;;102.90;2227.20;;;;;;4990937;28;20061;-60
2022/11/26 00:10:30;;;;;;;63.08;36.55;;;102.80;2227.20;;;;;;4990854;28;20030;-60
2022/11/26 00:12:56;;;;;;;46.67;28.70;;;102.80;2227.20;;;;;;4991103;28;20533;-55
2022/11/26 00:15:27;;;;;;;24.00;16.25;;;102.80;2227.20;;;;;;4991006;28;20038;-62
2022/11/26 00:17:53;;;;;;;24.52;16.42;;;102.70;2227.20;;;;;;4991161;28;20863;-58
2022/11/26 00:20:22;;;;;;;28.60;19.08;;;102.70;2227.20;;;;;;4991088;28;20034;-59
2022/11/26 00:22:53;;;;;;;41.83;25.13;;;102.70;2227.20;;;;;;4990857;28;20054;-59
2022/11/26 00:25:26;;;;;;;50.80;32.13;;;102.50;2227.20;;;;;;4990837;28;20045;-60
2022/11/26 00:27:56;;;;;;;90.28;56.28;;;102.80;2227.20;;;;;;4991058;28;20419;-61
2022/11/26 00:30:25;;;;;;;119.85;81.18;;;102.80;2227.20;;;;;;4990969;28;20117;-60
2022/11/26 00:32:52;;;;;;;63.47;39.80;;;102.90;2227.20;;;;;;4990984;28;20026;-64
2022/11/26 00:35:18;;;;;;;50.35;30.15;;;102.90;2227.20;;;;;;4990533;28;20129;-60
2022/11/26 00:37:55;;;;;;;36.13;22.13;;;102.90;2227.20;;;;;;4990521;28;20034;-60
2022/11/26 00:40:41;;;;;;;26.67;15.20;;;102.80;2227.20;;;;;;4987610;28;20461;-62
2022/11/26 00:43:13;;;;;;;23.65;13.32;;;102.80;2227.20;;;;;;4987966;28;20037;-62
2022/11/26 00:45:39;;;;;;;27.65;18.50;;;102.70;2227.20;;;;;;4990854;28;20034;-60
2022/11/26 00:48:05;;;;;;;32.08;20.02;;;102.80;2227.20;;;;;;4990244;28;20046;-60
2022/11/26 00:50:38;;;;;;;35.40;21.58;;;102.80;2227.20;;;;;;4990680;28;20373;-61
2022/11/26 00:53:04;;;;;;;;;;;102.80;2227.20;;;;;;4990925;28;20046;-61
2022/11/26 00:55:37;;;;;;;19.48;13.60;;;102.80;2227.20;;;;;;4990257;28;19921;-61
2022/11/26 00:58:06;;;;;;;19.15;11.95;;;102.80;2227.20;;;;;;4990769;28;20030;-60
2022/11/26 01:00:33;;;;;;;27.42;16.08;;;102.70;2227.20;;;;;;4990635;28;20536;-62
2022/11/26 01:03:01;;;;;;;56.95;29.85;;;102.70;2227.20;;;;;;4990458;28;20026;-61
2022/11/26 01:05:29;;;;;;;33.97;19.73;;;102.70;2227.20;;;;;;4990287;28;20049;-60
2022/11/26 01:07:59;;;;;;;25.05;15.88;;;102.60;2227.20;;;;;;4973227;28;20424;-60
2022/11/26 01:10:27;;;;;;;35.83;25.27;;;102.60;2227.20;;;;;;4990365;28;20034;-61
2022/11/26 01:12:53;;;;;;;31.73;24.52;;;102.60;2227.20;;;;;;4990596;28;20026;-60
2022/11/26 01:15:21;;;;;;;15.73;10.43;;;102.60;2227.20;;;;;;4990437;28;20047;-60
2022/11/26 01:17:48;;;;;;;38.78;23.67;;;102.50;2227.20;;;;;;4973958;28;20031;-59
2022/11/26 01:20:25;;;;;;;29.42;19.40;;;102.50;2227.20;;;;;;4971231;28;20870;-62
2022/11/26 01:22:52;;;;;;;25.80;18.33;;;102.40;2227.20;;;;;;4971018;28;20539;-59
2022/11/26 01:25:18;;;;;;;47.42;31.98;;;102.40;2227.20;;;;;;4970601;28;20046;-60
2022/11/26 01:27:44;;;;;;;17.10;10.93;;;102.40;2227.20;;;;;;4970748;28;20066;-60
2022/11/26 01:30:33;;;;;;;13.82;10.88;;;102.40;2227.20;;;;;;4970804;28;20023;-62
2022/11/26 01:32:59;;;;;;;14.70;9.63;;;102.40;2227.20;;;;;;4892507;29;20395;-60
2022/11/26 01:35:27;;;;;;;14.30;8.25;;;77.70;2227.20;;;;;;4892408;29;20098;-60
2022/11/26 01:37:53;;;;;;;16.95;10.88;;;102.40;2227.20;;;;;;4892467;29;20037;-59
2022/11/26 01:40:23;;;;;;;15.02;8.95;;;102.40;2227.20;;;;;;4892243;29;20380;-59
2022/11/26 01:43:05;;;;;;;14.40;9.65;;;102.40;2227.20;;;;;;4892473;29;20029;-62
2022/11/26 01:45:30;;;;;;;21.30;12.00;;;77.70;2227.20;;;;;;4892461;29;20029;-59
2022/11/26 01:47:56;;;;;;;25.15;15.50;;;77.70;2227.20;;;;;;4892197;29;20035;-59
2022/11/26 01:50:28;;;;;;;28.40;18.35;;;77.50;2227.20;;;;;;4892456;29;20039;-62
2022/11/26 01:53:25;;;;;;;29.23;18.02;;;77.50;2227.20;;;;;;4892379;29;20029;-60
2022/11/26 01:55:56;;;;;;;34.33;20.42;;;77.50;2227.20;;;;;;4892056;29;20092;-59
2022/11/26 01:58:32;;;;;;;28.80;16.52;;;77.60;2227.20;;;;;;4892422;29;20137;-63
2022/11/26 02:00:59;;;;;;;27.58;16.23;;;77.50;2227.20;;;;;;4893500;29;20033;-59
2022/11/26 02:03:27;;;;;;;29.70;19.60;;;77.60;2227.20;;;;;;4895709;29;20037;-60
2022/11/26 02:06:01;;;;;;;28.13;15.40;;;77.60;2227.20;;;;;;4895691;29;20032;-60
2022/11/26 02:08:29;;;;;;;20.38;12.63;;;77.50;2227.20;;;;;;4895370;29;20071;-59
2022/11/26 02:10:54;;;;;;;25.88;15.27;;;77.50;2227.20;;;;;;4965096;28;20477;-59
2022/11/26 02:13:21;;;;;;;17.50;12.07;;;77.60;2227.20;;;;;;4973751;28;20038;-63
2022/11/26 02:15:59;;;;;;;17.70;11.55;;;77.60;2227.20;;;;;;4973722;28;20043;-59
2022/11/26 02:18:29;;;;;;;23.35;12.02;;;77.60;2227.20;;;;;;4973712;28;20023;-60
2022/11/26 02:20:58;;;;;;;15.10;8.27;;;77.60;2227.20;;;;;;4973615;28;20037;-60
2022/11/26 02:24:02;;;;;;;13.13;8.48;;;77.60;2227.20;;;;;;4973899;28;20030;-59
2022/11/26 02:26:46;;;;;;;13.25;7.38;;;77.60;2227.20;;;;;;4913697;29;20055;-61
2022/11/26 02:29:26;;;;;;;12.15;9.05;;;77.60;2227.20;;;;;;4914104;29;20416;-63
2022/11/26 02:32:07;;;;;;;15.07;10.07;;;77.50;2227.20;;;;;;4914169;29;20084;-59
2022/11/26 02:35:01;;;;;;;16.17;9.85;;;77.60;2227.20;;;;;;4914102;29;20099;-59
2022/11/26 02:37:31;;;;;;;32.00;19.58;;;77.50;2227.20;;;;;;4913744;29;20075;-62
2022/11/26 02:39:57;;;;;;;28.67;16.67;;;77.30;2227.20;;;;;;4913639;29;20043;-60
2022/11/26 02:42:28;;;;;;;19.13;13.15;;;77.30;2227.20;;;;;;4913945;29;20115;-60
2022/11/26 02:45:17;;;;;;;17.52;10.35;;;77.40;2227.20;;;;;;4913617;29;20047;-60
2022/11/26 02:47:45;;;;;;;15.10;9.75;;;77.30;2227.20;;;;;;4913785;29;20036;-59
2022/11/26 02:50:29;;;;;;;14.57;9.57;;;77.40;2227.20;;;;;;4913678;29;20040;-61
2022/11/26 02:52:57;;;;;;;10.75;7.03;;;77.40;2227.20;;;;;;4913494;29;20043;-60
2022/11/26 02:55:28;;;;;;;21.13;12.35;;;77.40;2227.20;;;;;;4913306;29;20064;-60
2022/11/26 02:57:55;;;;;;;28.67;19.00;;;77.40;2227.20;;;;;;4913417;29;20032;-60
2022/11/26 03:00:21;;;;;;;30.92;18.52;;;77.20;2227.20;;;;;;4913480;29;20035;-60
2022/11/26 03:03:25;;;;;;;20.98;14.13;;;77.20;2227.20;;;;;;4909578;29;20413;-60
2022/11/26 03:05:54;;;;;;;13.82;9.98;;;77.30;2227.20;;;;;;4876007;29;20518;-60
2022/11/26 03:08:21;;;;;;;15.60;11.13;;;77.40;2227.20;;;;;;4875886;29;20033;-59
2022/11/26 03:10:46;;;;;;;19.15;10.00;;;77.40;2227.20;;;;;;4875601;29;20043;-61
2022/11/26 03:13:12;;;;;;;13.70;8.52;;;77.30;2227.20;;;;;;4875526;29;20041;-62
2022/11/26 03:15:38;;;;;;;10.75;6.93;;;77.30;2227.20;;;;;;4875691;29;20424;-62
2022/11/26 03:18:04;;;;;;;9.70;6.43;;;77.30;2227.20;;;;;;4876032;29;20517;-60
2022/11/26 03:20:29;;;;;;;9.45;6.50;;;77.20;2227.20;;;;;;4875629;29;20129;-62
2022/11/26 03:22:55;;;;;;;8.77;5.55;;;77.20;2227.20;;;;;;4875367;29;20053;-60
2022/11/26 03:25:20;;;;;;;11.00;7.30;;;77.20;2227.20;;;;;;4875534;29;20045;-62
2022/11/26 03:27:46;;;;;;;25.13;15.95;;;77.30;2227.20;;;;;;4875296;29;20428;-62
2022/11/26 03:30:12;;;;;;;41.17;26.00;;;77.40;2227.20;;;;;;4875572;29;20032;-63
2022/11/26 03:32:38;;;;;;;20.60;13.98;;;77.40;2227.20;;;;;;4875258;29;20564;-59
2022/11/26 03:35:04;;;;;;;18.73;11.88;;;77.40;2227.20;;;;;;4875426;29;20404;-60
2022/11/26 03:37:30;;;;;;;19.08;12.25;;;77.40;2227.20;;;;;;4875390;29;20107;-62
2022/11/26 03:39:56;;;;;;;22.42;13.43;;;77.40;2227.20;;;;;;4919903;29;20118;-61
2022/11/26 03:42:22;;;;;;;19.23;10.88;;;77.40;2227.20;;;;;;4952850;29;20110;-62
2022/11/26 03:44:47;;;;;;;15.23;9.45;;;77.40;2227.20;;;;;;4952738;29;20533;-60
2022/11/26 03:47:13;;;;;;;13.20;9.13;;;77.40;2227.20;;;;;;4952992;29;20039;-62
2022/11/26 03:49:39;;;;;;;11.00;5.63;;;77.50;2227.20;;;;;;4952934;29;20031;-62
2022/11/26 03:52:04;;;;;;;8.82;6.38;;;77.50;2227.20;;;;;;4952762;29;20035;-60
2022/11/26 03:54:30;;;;;;;14.93;7.47;;;77.50;2227.20;;;;;;4955061;28;21556;-62
2022/11/26 03:56:56;;;;;;;21.08;13.88;;;77.50;2227.20;;;;;;4971693;28;20035;-59
2022/11/26 03:59:21;;;;;;;22.13;13.23;;;77.40;2227.20;;;;;;4972011;28;20030;-59
2022/11/26 04:01:47;;;;;;;16.63;9.68;;;77.40;2227.20;;;;;;4971698;28;20033;-61
2022/11/26 04:04:13;;;;;;;17.17;11.23;;;77.40;2227.20;;;;;;4954812;28;20058;-59
2022/11/26 04:06:38;;;;;;;25.95;17.77;;;77.40;2227.20;;;;;;4971814;28;20034;-61
2022/11/26 04:09:04;;;;;;;11.55;7.60;;;77.30;2227.20;;;;;;4971722;28;20031;-60
2022/11/26 04:11:30;;;;;;;11.82;8.05;;;77.20;2227.20;;;;;;4971652;28;20030;-59
2022/11/26 04:13:56;;;;;;;11.57;9.07;;;77.30;2227.20;;;;;;4971567;28;20031;-59
2022/11/26 04:16:21;;;;;;;10.15;6.85;;;77.10;2227.20;;;;;;4971631;28;20477;-60
2022/11/26 04:18:47;;;;;;;11.40;10.15;;;77.10;2227.20;;;;;;4971495;28;20065;-60
2022/11/26 04:21:13;;;;;;;11.52;8.40;;;77.10;2227.20;;;;;;4971738;28;20508;-63
2022/11/26 04:23:39;;;;;;;9.73;6.32;;;77.00;2227.20;;;;;;4970856;28;20078;-59
2022/11/26 04:26:05;;;;;;;13.25;6.70;;;77.00;2227.20;;;;;;4971298;28;20093;-60
2022/11/26 04:28:30;;;;;;;11.13;6.25;;;77.10;2227.20;;;;;;4971447;28;20035;-63
2022/11/26 04:30:56;;;;;;;15.70;11.00;;;77.10;2227.20;;;;;;4971297;28;20106;-60
2022/11/26 04:33:22;;;;;;;17.13;12.98;;;77.10;2227.20;;;;;;4971571;28;20035;-59
2022/11/26 04:35:49;;;;;;;16.80;11.75;;;77.10;2227.20;;;;;;4971201;28;20035;-60
2022/11/26 04:38:15;;;;;;;21.33;15.60;;;77.10;2227.20;;;;;;4971377;28;20382;-60
2022/11/26 04:40:40;;;;;;;70.38;38.90;;;77.10;2227.20;;;;;;4971163;28;20027;-60
2022/11/26 04:43:06;;;;;;;80.00;39.75;;;77.10;2227.20;;;;;;4971353;28;20027;-60
2022/11/26 04:45:32;;;;;;;22.73;15.27;;;77.20;2227.20;;;;;;4971277;28;20496;-60
2022/11/26 04:47:58;;;;;;;20.73;11.98;;;77.20;2227.20;;;;;;4971304;28;20187;-60
2022/11/26 04:50:24;;;;;;;22.08;14.27;;;77.20;2227.20;;;;;;4971039;28;20469;-60
2022/11/26 04:52:49;;;;;;;23.05;14.40;;;77.10;2227.20;;;;;;4971319;28;20034;-60
2022/11/26 04:55:16;;;;;;;30.33;16.58;;;77.10;2227.20;;;;;;4970763;28;20129;-60
2022/11/26 04:57:41;;;;;;;23.48;14.60;;;77.10;2227.20;;;;;;4971246;28;20031;-60
2022/11/26 05:00:08;;;;;;;20.08;17.83;;;77.10;2227.20;;;;;;4970950;28;20473;-61
2022/11/26 05:02:33;;;;;;;14.23;9.45;;;77.20;2227.20;;;;;;4971089;28;20094;-60
2022/11/26 05:04:59;;;;;;;10.95;8.27;;;77.10;2227.20;;;;;;4971379;28;20027;-60
2022/11/26 05:07:25;;;;;;;13.63;10.30;;;76.90;2227.20;;;;;;4971056;28;20042;-60
2022/11/26 05:09:50;;;;;;;17.38;8.30;;;76.90;2227.20;;;;;;4971207;28;20053;-60
2022/11/26 05:12:16;;;;;;;15.25;10.27;;;76.90;2227.20;;;;;;4970860;28;20035;-59
2022/11/26 05:14:42;;;;;;;14.20;11.50;;;76.90;2227.20;;;;;;4971087;28;20035;-59
2022/11/26 05:17:07;;;;;;;13.30;9.65;;;76.80;2227.20;;;;;;4970892;28;20042;-60
2022/11/26 05:19:33;;;;;;;13.23;8.15;;;76.90;2227.20;;;;;;4971104;28;20037;-63
2022/11/26 05:21:59;;;;;;;17.10;9.82;;;77.00;2227.20;;;;;;4971254;28;20038;-60
2022/11/26 05:24:25;;;;;;;25.98;15.50;;;76.90;2227.20;;;;;;4970750;28;20453;-60
2022/11/26 05:26:51;;;;;;;16.88;10.57;;;77.00;2227.20;;;;;;4970893;28;20037;-63
2022/11/26 05:29:16;;;;;;;12.95;7.85;;;77.10;2227.20;;;;;;4970697;28;20037;-59
2022/11/26 05:31:42;;;;;;;15.65;12.32;;;77.10;2227.20;;;;;;4970786;28;20390;-60
2022/11/26 05:34:08;;;;;;;22.35;12.57;;;77.10;2227.20;;;;;;4970866;28;20038;-61
2022/11/26 05:36:33;;;;;;;22.67;10.63;;;77.10;2227.20;;;;;;4974762;28;20121;-60
2022/11/26 05:38:59;;;;;;;21.77;14.60;;;76.90;2227.20;;;;;;4974614;28;20033;-60
2022/11/26 05:41:25;;;;;;;42.63;24.30;;;77.00;2227.20;;;;;;4974398;28;20568;-61
2022/11/26 05:43:50;;;;;;;34.47;21.33;;;77.00;2227.20;;;;;;4974463;28;20066;-60
2022/11/26 05:46:17;;;;;;;19.58;11.15;;;77.10;2227.20;;;;;;4974144;28;20486;-61
2022/11/26 05:48:44;;;;;;;15.20;9.32;;;77.20;2227.20;;;;;;4974353;28;20027;-60
2022/11/26 05:51:10;;;;;;;15.70;7.90;;;77.40;2227.20;;;;;;4974496;28;20029;-63
2022/11/26 05:53:36;;;;;;;13.93;8.00;;;77.20;2227.20;;;;;;4974243;28;20105;-61
2022/11/26 05:56:02;;;;;;;14.18;7.47;;;77.10;2227.20;;;;;;4973917;28;20050;-60
2022/11/26 05:58:28;;;;;;;13.73;7.97;;;77.10;2227.20;;;;;;4974138;28;20093;-60
2022/11/26 06:00:53;;;;;;;17.23;8.50;;;77.10;2227.20;;;;;;4974202;28;20031;-59
2022/11/26 06:03:19;;;;;;;15.57;9.93;;;77.20;2227.20;;;;;;4974039;28;20030;-63
2022/11/26 06:05:45;;;;;;;25.10;15.25;;;77.20;2227.20;;;;;;4973904;28;20130;-61
2022/11/26 06:08:10;;;;;;;33.75;17.42;;;77.20;2227.20;;;;;;4973928;28;20030;-63
2022/11/26 06:10:36;;;;;;;21.48;13.38;;;77.30;2227.20;;;;;;4973917;28;20102;-60
2022/11/26 06:13:02;;;;;;;25.38;15.25;;;77.50;2227.20;;;;;;4973231;28;20117;-60
2022/11/26 06:15:28;;;;;;;19.85;11.90;;;77.50;2227.20;;;;;;4973602;28;20038;-60
2022/11/26 06:17:53;;;;;;;21.80;13.75;;;77.60;2227.20;;;;;;4973886;28;20030;-60
2022/11/26 06:20:19;;;;;;;19.67;11.55;;;77.60;2227.20;;;;;;4973853;28;20563;-60
2022/11/26 06:22:45;;;;;;;16.67;11.32;;;77.60;2227.20;;;;;;4973545;28;20035;-60
2022/11/26 06:25:13;;;;;;;19.13;11.60;;;77.60;2227.20;;;;;;4973650;28;20043;-63
2022/11/26 06:27:39;;;;;;;20.35;13.02;;;77.60;2227.20;;;;;;4973564;28;20066;-60
2022/11/26 06:30:07;;;;;;;18.00;11.52;;;77.50;2227.20;;;;;;4973600;28;20394;-61
2022/11/26 06:32:33;;;;;;;20.45;13.73;;;77.60;2227.20;;;;;;4973624;28;20026;-61
2022/11/26 06:34:58;;;;;;;16.95;11.13;;;102.40;2227.20;;;;;;4973225;28;20047;-60
2022/11/26 06:37:24;;;;;;;15.95;10.73;;;102.40;2227.20;;;;;;4973648;28;20106;-60
2022/11/26 06:39:51;;;;;;;18.48;11.38;;;102.70;2227.20;;;;;;4973482;28;20373;-60
2022/11/26 06:42:17;;;;;;;20.30;12.90;;;102.80;2227.20;;;;;;4973116;28;20031;-60
2022/11/26 06:44:42;;;;;;;40.45;21.30;;;102.90;2227.20;;;;;;4973485;28;20035;-61
2022/11/26 06:47:12;;;;;;;33.83;19.05;;;102.90;2227.20;;;;;;4972535;28;20394;-63
2022/11/26 06:49:38;;;;;;;38.38;22.83;;;103.20;2227.20;;;;;;4973012;28;20037;-63
2022/11/26 06:52:04;;;;;;;38.05;21.00;;;103.30;2227.20;;;;;;4973397;28;20381;-64
2022/11/26 06:54:29;;;;;;;25.08;15.82;;;103.20;2227.20;;;;;;4973029;28;20442;-60
2022/11/26 06:56:55;;;;;;;22.05;15.35;;;103.30;2227.20;;;;;;4972812;28;20126;-60
2022/11/26 06:59:21;;;;;;;25.00;14.65;;;103.30;2227.20;;;;;;4973004;28;20415;-60
2022/11/26 07:01:47;;;;;;;26.60;16.83;;;103.30;2227.20;;;;;;4972814;28;20031;-61
2022/11/26 07:04:12;;;;;;;23.27;14.85;;;103.30;2227.20;;;;;;4972964;28;20106;-59
2022/11/26 07:06:38;;;;;;;20.33;13.52;;;103.20;2227.20;;;;;;4955384;28;20034;-60
2022/11/26 07:09:08;;;;;;;25.27;14.50;;;103.30;2227.20;;;;;;4973167;28;20481;-60
2022/11/26 07:11:36;;;;;;;18.98;12.85;;;128.10;2252.80;;;;;;4972939;28;20085;-60
2022/11/26 07:14:02;;;;;;;23.60;15.35;;;128.10;2252.80;;;;;;4973058;28;20041;-60
2022/11/26 07:16:28;;;;;;;20.52;14.18;;;128.10;2252.80;;;;;;4972315;28;20042;-61
2022/11/26 07:18:55;;;;;;;18.95;12.30;;;128.00;2252.80;;;;;;4972568;28;20477;-60
2022/11/26 07:21:22;;;;;;;22.05;13.05;;;128.20;2252.80;;;;;;4972749;28;20031;-60
2022/11/26 07:23:49;;;;;;;26.05;15.90;;;128.20;2252.80;;;;;;4972374;28;20023;-60
2022/11/26 07:26:16;;;;;;;26.80;15.07;;;128.20;2252.80;;;;;;4982911;28;20030;-62
2022/11/26 07:28:42;;;;;;;25.50;19.77;;;128.40;2252.80;;;;;;4992148;28;20787;-63
2022/11/26 07:31:13;;;;;;;23.00;15.80;;;128.50;2252.80;;;;;;4991830;28;20026;-63
2022/11/26 07:33:38;;;;;;;19.67;16.33;;;128.70;2252.80;;;;;;4991503;28;20046;-60
2022/11/26 07:36:07;;;;;;;23.92;15.98;;;128.90;2252.80;;;;;;4991956;28;20124;-60
2022/11/26 07:38:33;;;;;;;26.65;19.35;;;128.90;2252.80;;;;;;4992008;28;20516;-60
2022/11/26 07:41:07;;;;;;;24.58;14.77;;;153.70;2252.80;;;;;;4991535;28;20022;-60
2022/11/26 07:43:39;;;;;;;47.20;32.55;;;153.90;2252.80;;;;;;4991884;28;20038;-60
2022/11/26 07:46:06;;;;;;;37.03;25.65;;;154.00;2252.80;;;;;;4991629;28;20033;-60
2022/11/26 07:48:32;;;;;;;58.08;43.47;;;154.10;2252.80;;;;;;4991601;28;20498;-60
2022/11/26 07:51:00;;;;;;;104.05;76.22;;;154.30;2252.80;;;;;;4991492;28;20063;-59
2022/11/26 07:53:32;;;;;;;90.65;61.60;;;179.50;2252.80;;;;;;4991227;28;20038;-60
2022/11/26 07:55:58;;;;;;;74.82;53.65;;;179.80;2252.80;;;;;;4990886;28;20062;-60
2022/11/26 07:58:25;;;;;;;44.25;31.02;;;205.00;2252.80;;;;;;4990823;28;20467;-65
2022/11/26 08:00:51;;;;;;;32.22;20.48;;;205.70;2252.80;;;;;;4991349;28;20033;-60
2022/11/26 08:03:17;;;;;;;15.45;12.18;;;230.90;2252.80;;;;;;4991195;28;20026;-63
2022/11/26 08:05:44;;;;;;;16.85;13.48;;;231.30;2252.80;;;;;;4991351;28;20037;-61
2022/11/26 08:08:10;;;;;;;20.17;16.98;;;256.60;2252.80;;;;;;4991342;28;20042;-62
2022/11/26 08:10:37;;;;;;;21.70;14.80;;;281.90;2278.40;;;;;;4991213;28;20445;-60
2022/11/26 08:13:02;;;;;;;15.80;8.98;;;282.30;2278.40;;;;;;4991311;28;20018;-60
2022/11/26 08:15:28;;;;;;;12.65;8.65;;;282.50;2278.40;;;;;;4990781;28;20030;-60
2022/11/26 08:17:57;;;;;;;9.52;8.50;;;282.40;2278.40;;;;;;4990914;28;20489;-60
2022/11/26 08:20:23;;;;;;;12.68;9.73;;;282.00;2278.40;;;;;;4991079;28;20038;-66
2022/11/26 08:22:49;;;;;;;14.27;10.55;;;281.70;2278.40;;;;;;4991032;28;20488;-60
2022/11/26 08:25:15;;;;;;;14.70;9.40;;;281.80;2278.40;;;;;;4990816;28;20105;-61
2022/11/26 08:27:42;;;;;;;17.27;10.48;;;256.80;2252.80;;;;;;4990745;28;20050;-61
2022/11/26 08:30:09;;;;;;;14.75;10.32;;;256.10;2252.80;;;;;;4991171;28;20453;-62
2022/11/26 08:32:35;;;;;;;13.88;10.43;;;231.20;2252.80;;;;;;4990690;28;20125;-61
2022/11/26 08:35:01;;;;;;;13.90;11.07;;;256.50;2252.80;;;;;;4990833;28;20121;-60
2022/11/26 08:37:27;;;;;;;14.80;10.73;;;281.70;2278.40;;;;;;4990782;28;20045;-60
2022/11/26 08:39:53;;;;;;;23.08;16.05;;;307.30;2304.00;;;;;;4990857;28;20400;-60
2022/11/26 08:42:19;;;;;;;88.60;69.45;;;308.10;2304.00;;;;;;4990813;28;20109;-60
2022/11/26 08:44:44;;;;;;;95.05;80.40;;;332.90;2329.60;;;;;;4990597;28;20028;-61
2022/11/26 08:47:10;;;;;;;105.13;85.45;;;333.10;2329.60;;;;;;4990882;28;20030;-66
2022/11/26 08:49:36;;;;;;;85.68;70.28;;;333.20;2278.40;;;;;;4990787;28;20034;-60
2022/11/26 08:52:01;;;;;;;78.68;67.20;;;332.90;2304.00;;;;;;4990724;28;20076;-60
2022/11/26 08:54:27;;;;;;;83.80;70.93;;;333.00;2304.00;;;;;;4989877;28;20035;-62
2022/11/26 08:56:54;;;;;;;84.40;65.65;;;333.30;2278.40;;;;;;4971089;28;20509;-66
2022/11/26 08:59:21;;;;;;;78.68;61.05;;;333.30;2252.80;;;;;;4971309;28;20026;-67
2022/11/26 09:01:47;;;;;;;67.53;56.03;;;333.20;2304.00;;;;;;4970936;28;20139;-59
2022/11/26 09:04:13;;;;;;;56.90;48.92;;;358.40;2227.20;;;;;;4971140;28;20038;-59
2022/11/26 09:06:40;;;;;;;124.88;111.53;;;358.70;2150.40;;;;;;4971089;28;20031;-55
2022/11/26 09:09:16;;;;;;;135.02;119.88;;;358.70;2176.00;;;;;;4971125;28;20390;-55
2022/11/26 09:11:41;;;;;;;133.27;117.97;;;358.70;2176.00;;;;;;4975175;28;20034;-59
2022/11/26 09:14:08;;;;;;;109.07;94.43;;;359.00;2124.80;;;;;;4974910;28;20031;-55
2022/11/26 09:16:34;;;;;;;144.90;119.30;;;358.50;2150.40;;;;;;4974838;28;20073;-55
2022/11/26 09:19:01;;;;;;;181.15;154.05;;;358.40;2176.00;;;;;;4974884;28;20022;-55
2022/11/26 09:21:27;;;;;;;148.55;128.65;;;333.70;2176.00;;;;;;4974754;28;20038;-56
2022/11/26 09:23:53;;;;;;;146.40;126.00;;;333.70;2201.60;;;;;;4975011;28;20478;-55
2022/11/26 09:26:20;;;;;;;97.10;81.18;;;358.70;2150.40;;;;;;4974194;28;20098;-55
2022/11/26 09:28:49;;;;;;;88.95;68.30;;;358.70;2150.40;;;;;;4974528;28;20058;-55
2022/11/26 09:31:15;;;;;;;76.35;54.53;;;358.80;2124.80;;;;;;4974561;28;20508;-55
2022/11/26 09:33:41;;;;;;;64.22;50.45;;;358.80;2099.20;;;;;;4974846;28;20031;-55
2022/11/26 09:36:09;;;;;;;76.25;58.35;;;358.70;2124.80;;;;;;4974572;28;20045;-55
2022/11/26 09:38:35;;;;;;;67.55;52.92;;;358.50;2150.40;;;;;;4974575;28;20098;-55
2022/11/26 09:41:19;;;;;;;79.22;59.50;;;332.80;2278.40;;;;;;4974515;28;20086;-54
2022/11/26 09:43:59;;;;;;;111.95;79.97;;;333.20;2278.40;;;;;;4974064;28;20025;-54
2022/11/26 09:46:44;;;;;;;117.45;81.20;;;307.70;2304.00;;;;;;4965805;28;20628;-59
2022/11/26 09:49:13;;;;;;;186.40;127.18;;;307.20;2304.00;;;;;;4956734;28;20118;-59
2022/11/26 09:51:43;;;;;;;114.32;77.43;;;282.40;2278.40;;;;;;4955160;29;20032;-60
2022/11/26 09:54:16;;;;;;;110.18;77.28;;;282.20;2278.40;;;;;;4954947;29;20019;-58
2022/11/26 09:56:42;;;;;;;;;;;281.80;2278.40;;;;;;4971399;28;20046;-54
2022/11/26 09:59:12;;;;;;;106.00;69.57;;;281.70;2278.40;;;;;;4973948;28;19906;-57
2022/11/26 10:01:41;;;;;;;110.20;77.20;;;282.00;2278.40;;;;;;4978517;28;20034;-57
2022/11/26 10:04:08;;;;;;;138.43;96.78;;;256.80;2252.80;;;;;;4974172;28;20033;-55
2022/11/26 10:07:04;;;;;;;139.48;83.45;;;281.80;2278.40;;;;;;4974292;28;20122;-59
2022/11/26 10:09:39;;;;;;;113.13;78.40;;;256.80;2252.80;;;;;;4974098;28;20094;-58
2022/11/26 10:12:28;;;;;;;123.07;81.47;;;256.60;2252.80;;;;;;4973958;28;20027;-55
2022/11/26 10:15:16;;;;;;;99.80;70.10;;;256.60;2252.80;;;;;;4973915;28;20026;-55
2022/11/26 10:18:15;;;;;;;104.13;71.35;;;256.70;2252.80;;;;;;4973811;28;20030;-60
2022/11/26 10:21:13;;;;;;;111.45;77.43;;;256.80;2252.80;;;;;;4969313;28;20046;-59
2022/11/26 10:23:45;;;;;;;79.05;59.38;;;256.80;2252.80;;;;;;4895278;29;20066;-55
2022/11/26 10:26:16;;;;;;;95.25;61.75;;;256.70;2252.80;;;;;;4895781;29;20392;-55
2022/11/26 10:28:47;;;;;;;88.57;63.78;;;256.90;2252.80;;;;;;4895280;29;20128;-55
2022/11/26 10:31:32;;;;;;;94.97;67.13;;;256.90;2252.80;;;;;;4895427;29;20025;-58
2022/11/26 10:34:07;;;;;;;77.82;55.17;;;281.80;2278.40;;;;;;4895041;29;20041;-58
2022/11/26 10:36:41;;;;;;;69.65;47.50;;;281.60;2278.40;;;;;;4895242;29;20124;-55
2022/11/26 10:39:11;;;;;;;39.08;29.70;;;281.70;2278.40;;;;;;4895065;29;20044;-55
2022/11/26 10:41:37;;;;;;;35.90;25.40;;;281.80;2278.40;;;;;;4894947;29;20035;-55
2022/11/26 10:44:29;;;;;;;37.05;26.27;;;281.70;2278.40;;;;;;4895136;29;20430;-59
2022/11/26 10:46:55;;;;;;;37.08;26.67;;;256.80;2252.80;;;;;;4896333;29;20041;-55
2022/11/26 10:49:26;;;;;;;43.90;31.65;;;281.70;2278.40;;;;;;4895042;29;20036;-55
2022/11/26 10:52:06;;;;;;;40.58;29.05;;;256.90;2252.80;;;;;;4894901;29;20029;-55
2022/11/26 10:54:34;;;;;;;41.75;30.52;;;256.80;2252.80;;;;;;4894743;29;20376;-55
2022/11/26 10:57:09;;;;;;;105.47;75.18;;;281.60;2278.40;;;;;;4894442;29;20080;-54
2022/11/26 10:59:46;;;;;;;37.35;28.98;;;282.00;2278.40;;;;;;4913149;29;20042;-55
2022/11/26 11:02:35;;;;;;;42.35;30.85;;;281.90;2278.40;;;;;;4952011;28;20035;-55
2022/11/26 11:05:05;;;;;;;42.85;27.92;;;282.00;2278.40;;;;;;4952378;29;20031;-57
2022/11/26 11:07:36;;;;;;;34.47;23.65;;;281.70;2278.40;;;;;;4952183;29;20028;-54
2022/11/26 11:10:08;;;;;;;25.48;18.77;;;256.90;2252.80;;;;;;4952168;28;20120;-55
2022/11/26 11:12:38;;;;;;;21.70;16.98;;;281.90;2278.40;;;;;;4952110;28;20031;-55
2022/11/26 11:15:40;;;;;;;28.67;22.33;;;282.00;2278.40;;;;;;4951572;28;20482;-55
2022/11/26 11:18:12;;;;;;;39.80;24.05;;;282.10;2278.40;;;;;;4951862;29;20087;-58
2022/11/26 11:20:49;;;;;;;30.63;20.05;;;281.90;2278.40;;;;;;4951654;28;20554;-58
2022/11/26 11:23:15;;;;;;;37.58;25.75;;;282.00;2278.40;;;;;;4951731;28;20463;-58
2022/11/26 11:25:44;;;;;;;29.30;21.80;;;282.50;2278.40;;;;;;4951706;28;20042;-59
2022/11/26 11:28:20;;;;;;;25.67;18.50;;;282.40;2278.40;;;;;;4951491;28;20162;-59
2022/11/26 11:30:55;;;;;;;28.77;22.55;;;282.40;2278.40;;;;;;4951619;28;20031;-59
2022/11/26 11:33:24;;;;;;;23.20;17.48;;;282.50;2278.40;;;;;;4951667;28;20110;-59
2022/11/26 11:35:58;;;;;;;52.25;41.53;;;307.20;2304.00;;;;;;4951765;28;20039;-58
2022/11/26 11:38:29;;;;;;;26.98;19.42;;;307.50;2304.00;;;;;;4951616;28;20077;-59
2022/11/26 11:40:55;;;;;;;22.60;17.58;;;282.50;2278.40;;;;;;4951171;28;20046;-57
2022/11/26 11:43:22;;;;;;;33.30;20.27;;;282.40;2278.40;;;;;;4951384;28;20015;-57
2022/11/26 11:46:12;;;;;;;33.53;20.80;;;307.20;2304.00;;;;;;4951291;28;20031;-55
2022/11/26 11:48:50;;;;;;;30.77;24.60;;;282.40;2278.40;;;;;;4949677;29;20035;-59
2022/11/26 11:51:29;;;;;;;43.95;31.75;;;307.20;2304.00;;;;;;4951194;28;20486;-58
2022/11/26 11:53:58;;;;;;;70.00;50.80;;;307.40;2304.00;;;;;;4950704;28;20474;-59
2022/11/26 11:56:32;;;;;;;65.78;49.85;;;307.50;2304.00;;;;;;4967131;28;20046;-59
2022/11/26 11:59:13;;;;;;;30.85;23.95;;;307.30;2304.00;;;;;;4987412;28;20101;-56
2022/11/26 12:02:10;;;;;;;46.80;31.20;;;282.40;2278.40;;;;;;4989546;28;20029;-56
2022/11/26 12:05:05;;;;;;;35.70;24.10;;;282.50;2278.40;;;;;;4946271;28;20064;-55
2022/11/26 12:07:34;;;;;;;30.42;23.98;;;282.50;2278.40;;;;;;4989606;28;20040;-53
2022/11/26 12:10:05;;;;;;;27.35;19.88;;;307.30;2304.00;;;;;;4989844;28;20030;-55
2022/11/26 12:12:43;;;;;;;31.55;22.20;;;282.40;2278.40;;;;;;4989436;28;20037;-55
2022/11/26 12:15:27;;;;;;;51.30;36.95;;;282.10;2278.40;;;;;;4989517;28;20034;-54